createdAt,value
2018-06-08T00:00:54.661Z,91.90
2018-06-08T00:01:58.985Z,91.70
2018-06-08T00:03:03.369Z,91.90
2018-06-08T00:04:07.789Z,92.00
2018-06-08T00:05:12.119Z,92.00
2018-06-08T00:06:16.580Z,92.00
2018-06-08T00:07:20.840Z,91.40
2018-06-08T00:08:25.059Z,91.50
2018-06-08T00:09:29.821Z,91.70
2018-06-08T00:10:34.415Z,91.80
2018-06-08T00:11:38.799Z,91.70
2018-06-08T00:12:43.211Z,91.70
2018-06-08T00:13:47.584Z,91.80
2018-06-08T00:14:52.186Z,91.80
2018-06-08T00:15:56.552Z,91.80
2018-06-08T00:17:00.709Z,91.60
2018-06-08T00:18:04.935Z,91.70
2018-06-08T00:19:09.067Z,91.80
2018-06-08T00:20:13.443Z,91.80
2018-06-08T00:21:17.883Z,91.80
2018-06-08T00:22:22.292Z,91.80
2018-06-08T00:23:26.771Z,91.70
2018-06-08T00:24:31.160Z,91.80
2018-06-08T00:25:35.542Z,91.80
2018-06-08T00:26:39.655Z,91.70
2018-06-08T00:27:44.080Z,91.80
2018-06-08T00:28:48.699Z,91.90
2018-06-08T00:29:53.060Z,91.80
2018-06-08T00:30:57.767Z,92.00
2018-06-08T00:32:02.099Z,92.00
2018-06-08T00:33:06.743Z,92.00
2018-06-08T00:34:11.231Z,91.90
2018-06-08T00:35:15.356Z,91.90
2018-06-08T00:36:19.442Z,91.90
2018-06-08T00:37:23.919Z,91.80
2018-06-08T00:38:28.387Z,91.80
2018-06-08T00:39:32.585Z,91.80
2018-06-08T00:40:36.908Z,91.80
2018-06-08T00:41:41.382Z,91.80
2018-06-08T00:42:45.481Z,91.70
2018-06-08T00:43:49.815Z,91.80
2018-06-08T00:44:53.970Z,91.90
2018-06-08T00:45:58.088Z,91.60
2018-06-08T00:47:02.935Z,91.70
2018-06-08T00:48:07.112Z,91.80
2018-06-08T00:49:12.004Z,91.70
2018-06-08T00:50:16.416Z,91.90
2018-06-08T00:51:20.743Z,91.70
2018-06-08T00:52:25.234Z,91.40
2018-06-08T00:53:29.747Z,91.60
2018-06-08T00:54:34.610Z,91.70
2018-06-08T00:55:39.178Z,91.80
2018-06-08T00:56:54.653Z,91.90
2018-06-08T00:57:58.963Z,91.70
2018-06-08T00:59:03.303Z,91.90
2018-06-08T01:00:07.673Z,91.80
2018-06-08T01:01:12.061Z,91.80
2018-06-08T01:02:16.461Z,91.70
2018-06-08T01:03:21.002Z,91.90
2018-06-08T01:04:25.597Z,91.80
2018-06-08T01:05:30.035Z,91.70
2018-06-08T01:06:34.509Z,91.70
2018-06-08T01:07:38.992Z,91.70
2018-06-08T01:08:43.698Z,91.70
2018-06-08T01:09:48.117Z,91.80
2018-06-08T01:10:52.636Z,91.80
2018-06-08T01:11:57.092Z,91.30
2018-06-08T01:13:01.648Z,92.00
2018-06-08T01:14:06.116Z,91.90
2018-06-08T01:15:11.059Z,91.30
2018-06-08T01:16:15.400Z,91.90
2018-06-08T01:17:19.750Z,91.90
2018-06-08T01:18:24.168Z,92.00
2018-06-08T01:19:29.072Z,92.00
2018-06-08T01:20:33.428Z,91.90
2018-06-08T01:21:38.178Z,91.90
2018-06-08T01:22:42.773Z,91.80
2018-06-08T01:23:47.132Z,91.70
2018-06-08T01:24:51.566Z,91.90
2018-06-08T01:25:55.874Z,91.70
2018-06-08T01:27:00.536Z,91.80
2018-06-08T01:28:04.870Z,91.90
2018-06-08T01:29:09.107Z,91.90
2018-06-08T01:30:13.217Z,92.00
2018-06-08T01:31:17.425Z,91.60
2018-06-08T01:32:21.618Z,91.70
2018-06-08T01:33:26.088Z,91.80
2018-06-08T01:34:30.204Z,91.80
2018-06-08T01:35:34.314Z,91.80
2018-06-08T01:36:38.762Z,91.90
2018-06-08T01:37:42.908Z,92.10
2018-06-08T01:38:47.328Z,92.00
2018-06-08T01:39:51.414Z,92.00
2018-06-08T01:40:55.462Z,92.10
2018-06-08T01:41:59.543Z,92.00
2018-06-08T01:43:04.089Z,92.20
2018-06-08T01:44:08.303Z,92.30
2018-06-08T01:45:12.378Z,92.40
2018-06-08T01:46:16.500Z,92.30
2018-06-08T01:47:20.847Z,92.40
2018-06-08T01:48:24.971Z,92.20
2018-06-08T01:49:29.337Z,92.00
2018-06-08T01:50:33.381Z,92.00
2018-06-08T01:51:37.464Z,92.00
2018-06-08T01:52:41.936Z,93.00
2018-06-08T01:53:46.009Z,92.50
2018-06-08T01:54:50.080Z,92.40
2018-06-08T01:55:54.212Z,92.50
2018-06-08T01:56:58.315Z,92.50
2018-06-08T01:58:02.382Z,92.20
2018-06-08T01:59:06.478Z,92.20
2018-06-08T02:00:11.240Z,92.10
2018-06-08T02:01:15.548Z,92.20
2018-06-08T02:02:20.158Z,92.40
2018-06-08T02:03:24.503Z,92.00
2018-06-08T02:04:28.865Z,92.00
2018-06-08T02:05:32.995Z,91.90
2018-06-08T02:06:37.685Z,92.10
2018-06-08T02:07:41.763Z,92.10
2018-06-08T02:08:45.799Z,91.90
2018-06-08T02:09:49.869Z,92.20
2018-06-08T02:10:54.116Z,92.20
2018-06-08T02:11:58.188Z,92.10
2018-06-08T02:13:02.237Z,92.10
2018-06-08T02:14:06.607Z,92.30
2018-06-08T02:15:10.687Z,92.40
2018-06-08T02:16:14.824Z,92.40
2018-06-08T02:17:19.196Z,92.30
2018-06-08T02:18:23.279Z,92.20
2018-06-08T02:19:27.509Z,92.30
2018-06-08T02:22:28.329Z,92.30
2018-06-08T02:23:32.495Z,92.30
2018-06-08T02:24:36.735Z,92.10
2018-06-08T02:25:41.106Z,92.20
2018-06-08T02:26:45.197Z,92.00
2018-06-08T02:27:49.306Z,92.00
2018-06-08T02:28:53.676Z,92.10
2018-06-08T02:29:57.742Z,91.80
2018-06-08T02:31:01.867Z,92.20
2018-06-08T02:32:06.023Z,91.90
2018-06-08T02:33:10.057Z,91.80
2018-06-08T02:34:14.132Z,91.90
2018-06-08T02:35:19.056Z,91.70
2018-06-08T02:36:23.143Z,91.90
2018-06-08T02:37:27.363Z,91.90
2018-06-08T02:38:31.459Z,92.40
2018-06-08T02:39:35.560Z,92.40
2018-06-08T02:40:39.723Z,92.30
2018-06-08T02:41:43.880Z,92.60
2018-06-08T02:42:48.220Z,92.60
2018-06-08T02:43:52.555Z,92.50
2018-06-08T02:44:56.832Z,92.50
2018-06-08T02:46:01.148Z,92.60
2018-06-08T02:47:05.553Z,92.80
2018-06-08T02:48:10.247Z,92.60
2018-06-08T02:49:14.864Z,92.80
2018-06-08T02:50:19.296Z,93.00
2018-06-08T02:51:23.877Z,92.90
2018-06-08T02:52:28.524Z,92.90
2018-06-08T02:53:34.373Z,92.80
2018-06-08T02:54:38.996Z,93.00
2018-06-08T02:55:43.315Z,93.00
2018-06-08T02:56:47.774Z,92.90
2018-06-08T02:57:52.279Z,92.90
2018-06-08T02:58:56.704Z,92.90
2018-06-08T03:00:01.193Z,93.00
2018-06-08T03:01:05.550Z,93.30
2018-06-08T03:02:10.056Z,93.00
2018-06-08T03:03:14.539Z,93.00
2018-06-08T03:04:19.242Z,93.20
2018-06-08T03:05:23.707Z,92.80
2018-06-08T03:06:28.089Z,93.10
2018-06-08T03:07:32.185Z,93.10
2018-06-08T03:08:36.323Z,93.20
2018-06-08T03:09:40.686Z,93.20
2018-06-08T03:10:45.143Z,93.20
2018-06-08T03:11:49.561Z,93.10
2018-06-08T03:12:53.879Z,93.10
2018-06-08T03:13:58.235Z,93.10
2018-06-08T03:15:02.577Z,93.10
2018-06-08T03:16:06.985Z,93.10
2018-06-08T03:17:11.363Z,93.30
2018-06-08T03:18:15.763Z,93.20
2018-06-08T03:19:20.587Z,93.20
2018-06-08T03:20:25.096Z,93.40
2018-06-08T03:21:29.193Z,93.60
2018-06-08T03:22:33.349Z,93.30
2018-06-08T03:23:37.596Z,93.40
2018-06-08T03:24:42.069Z,93.30
2018-06-08T03:25:46.216Z,93.40
2018-06-08T03:26:51.089Z,93.50
2018-06-08T03:27:55.262Z,93.30
2018-06-08T03:28:59.404Z,92.80
2018-06-08T03:30:03.619Z,93.30
2018-06-08T03:31:07.707Z,93.30
2018-06-08T03:32:11.900Z,93.20
2018-06-08T03:33:15.969Z,93.20
2018-06-08T03:34:20.467Z,93.30
2018-06-08T03:35:26.126Z,93.20
2018-06-08T03:36:30.576Z,93.30
2018-06-08T03:37:34.928Z,93.20
2018-06-08T03:38:39.275Z,93.10
2018-06-08T03:39:43.618Z,93.40
2018-06-08T03:40:48.013Z,93.30
2018-06-08T03:41:52.370Z,93.40
2018-06-08T03:42:56.751Z,93.50
2018-06-08T03:44:00.891Z,93.30
2018-06-08T03:45:05.326Z,93.50
2018-06-08T03:46:09.460Z,93.40
2018-06-08T03:47:13.631Z,93.20
2018-06-08T03:48:17.887Z,93.20
2018-06-08T03:49:22.272Z,93.00
2018-06-08T03:50:26.367Z,93.20
2018-06-08T03:51:30.536Z,93.20
2018-06-08T03:52:35.208Z,93.10
2018-06-08T03:53:39.568Z,93.20
2018-06-08T03:54:43.967Z,93.30
2018-06-08T03:55:48.276Z,93.40
2018-06-08T03:56:52.660Z,93.30
2018-06-08T03:57:57.001Z,93.30
2018-06-08T03:59:01.443Z,93.40
2018-06-08T04:00:06.095Z,93.30
2018-06-08T04:01:10.435Z,93.20
2018-06-08T04:02:14.536Z,93.20
2018-06-08T04:03:18.663Z,93.20
2018-06-08T04:04:22.819Z,93.30
2018-06-08T04:05:26.982Z,93.30
2018-06-08T04:06:31.065Z,93.20
2018-06-08T04:07:35.180Z,93.10
2018-06-08T04:08:39.317Z,93.20
2018-06-08T04:09:43.407Z,93.20
2018-06-08T04:10:47.505Z,93.10
2018-06-08T04:11:51.591Z,93.00
2018-06-08T04:12:55.799Z,93.20
2018-06-08T04:13:59.945Z,93.20
2018-06-08T04:15:04.082Z,93.20
2018-06-08T04:16:08.477Z,93.20
2018-06-08T04:17:12.737Z,93.10
2018-06-08T04:18:16.863Z,93.00
2018-06-08T04:19:20.990Z,93.00
2018-06-08T04:20:25.365Z,92.90
2018-06-08T04:21:31.137Z,92.90
2018-06-08T04:22:35.716Z,93.00
2018-06-08T04:23:40.003Z,93.00
2018-06-08T04:24:44.369Z,93.20
2018-06-08T04:25:48.722Z,93.30
2018-06-08T04:26:53.090Z,93.40
2018-06-08T04:27:57.504Z,93.30
2018-06-08T04:29:01.874Z,93.40
2018-06-08T04:30:06.266Z,93.40
2018-06-08T04:31:10.780Z,93.40
2018-06-08T04:32:14.900Z,93.40
2018-06-08T04:33:19.131Z,93.30
2018-06-08T04:34:23.367Z,93.40
2018-06-08T04:35:27.526Z,93.20
2018-06-08T04:36:31.674Z,93.30
2018-06-08T04:37:35.806Z,93.40
2018-06-08T04:38:40.040Z,93.50
2018-06-08T04:39:44.171Z,93.50
2018-06-08T04:40:48.337Z,93.50
2018-06-08T04:41:52.471Z,93.50
2018-06-08T04:42:56.562Z,93.50
2018-06-08T04:44:00.705Z,93.60
2018-06-08T04:45:05.010Z,93.50
2018-06-08T04:46:09.264Z,93.50
2018-06-08T04:47:13.529Z,93.50
2018-06-08T04:48:17.637Z,93.40
2018-06-08T04:49:21.895Z,93.40
2018-06-08T04:50:26.007Z,93.50
2018-06-08T04:51:30.443Z,93.50
2018-06-08T04:52:34.792Z,93.50
2018-06-08T04:53:39.220Z,93.50
2018-06-08T04:54:43.867Z,93.40
2018-06-08T04:55:48.338Z,93.40
2018-06-08T04:56:53.033Z,92.90
2018-06-08T04:57:57.412Z,93.50
2018-06-08T04:59:01.769Z,93.90
2018-06-08T05:00:06.329Z,93.20
2018-06-08T05:01:10.669Z,93.30
2018-06-08T05:02:15.069Z,93.40
2018-06-08T05:03:19.493Z,93.40
2018-06-08T05:04:23.820Z,93.50
2018-06-08T05:05:28.200Z,93.40
2018-06-08T05:06:32.660Z,93.40
2018-06-08T05:07:37.046Z,93.30
2018-06-08T05:08:41.363Z,93.30
2018-06-08T05:09:45.874Z,93.30
2018-06-08T05:10:50.263Z,93.20
2018-06-08T05:11:54.587Z,93.70
2018-06-08T05:12:58.939Z,93.10
2018-06-08T05:14:03.419Z,93.10
2018-06-08T05:15:20.000Z,93.00
2018-06-08T05:16:24.388Z,93.20
2018-06-08T05:17:28.831Z,92.90
2018-06-08T05:18:33.207Z,93.10
2018-06-08T05:19:37.547Z,92.80
2018-06-08T05:20:42.165Z,92.90
2018-06-08T05:21:46.266Z,92.80
2018-06-08T05:23:54.184Z,93.20
2018-06-08T05:24:58.398Z,92.90
2018-06-08T05:26:02.823Z,92.20
2018-06-08T05:27:06.978Z,92.30
2018-06-08T05:28:11.153Z,92.50
2018-06-08T05:29:15.562Z,92.60
2018-06-08T05:30:22.260Z,92.60
2018-06-08T05:31:26.671Z,92.70
2018-06-08T05:32:31.472Z,93.00
2018-06-08T05:33:35.881Z,93.10
2018-06-08T05:34:40.563Z,93.10
2018-06-08T05:35:44.958Z,93.10
2018-06-08T05:36:49.785Z,93.00
2018-06-08T05:37:54.184Z,93.10
2018-06-08T05:38:59.233Z,93.10
2018-06-08T05:40:03.642Z,93.20
2018-06-08T05:41:07.991Z,93.20
2018-06-08T05:42:12.381Z,92.60
2018-06-08T05:43:16.714Z,92.50
2018-06-08T05:44:21.501Z,92.40
2018-06-08T05:45:25.948Z,92.50
2018-06-08T05:46:30.372Z,92.40
2018-06-08T05:47:34.740Z,92.20
2018-06-08T05:48:39.075Z,92.20
2018-06-08T05:49:43.467Z,92.30
2018-06-08T05:50:47.984Z,92.30
2018-06-08T05:51:52.963Z,92.40
2018-06-08T05:52:57.308Z,92.30
2018-06-08T05:54:05.412Z,92.20
2018-06-08T05:55:09.759Z,91.70
2018-06-08T05:56:14.750Z,91.90
2018-06-08T05:57:19.672Z,92.10
2018-06-08T05:58:25.392Z,92.00
2018-06-08T05:59:29.819Z,92.00
2018-06-08T06:00:33.912Z,92.00
2018-06-08T06:01:38.497Z,92.00
2018-06-08T06:02:42.785Z,92.00
2018-06-08T06:03:47.315Z,92.00
2018-06-08T06:04:51.447Z,92.10
2018-06-08T06:05:58.439Z,91.80
2018-06-08T06:07:02.597Z,91.80
2018-06-08T06:08:07.009Z,91.70
2018-06-08T06:09:11.458Z,91.70
2018-06-08T06:10:16.080Z,91.80
2018-06-08T06:11:20.456Z,91.80
2018-06-08T06:12:24.791Z,91.90
2018-06-08T06:13:29.094Z,91.80
2018-06-08T06:14:33.800Z,91.60
2018-06-08T06:15:38.353Z,91.60
2018-06-08T06:16:42.781Z,91.60
2018-06-08T06:17:47.177Z,91.70
2018-06-08T06:18:51.525Z,91.80
2018-06-08T06:19:56.405Z,91.90
2018-06-08T06:21:26.684Z,91.80
2018-06-08T06:22:31.058Z,91.80
2018-06-08T06:23:35.456Z,91.70
2018-06-08T06:24:40.224Z,91.80
2018-06-08T06:25:44.979Z,91.80
2018-06-08T06:26:49.371Z,91.70
2018-06-08T06:30:00.050Z,91.70
2018-06-08T06:31:04.300Z,91.60
2018-06-08T06:32:08.739Z,91.50
2018-06-08T06:33:12.972Z,91.30
2018-06-08T06:34:17.154Z,91.40
2018-06-08T06:35:21.360Z,91.60
2018-06-08T06:36:25.491Z,91.90
2018-06-08T06:37:29.598Z,91.40
2018-06-08T06:38:34.184Z,91.10
2018-06-08T06:39:41.037Z,90.90
2018-06-08T06:40:45.520Z,91.20
2018-06-08T06:41:49.589Z,91.60
2018-06-08T06:42:53.749Z,91.40
2018-06-08T06:43:58.194Z,91.60
2018-06-08T06:45:02.352Z,91.70
2018-06-08T06:46:06.815Z,91.80
2018-06-08T06:47:11.270Z,91.70
2018-06-08T06:48:15.604Z,91.70
2018-06-08T06:49:20.065Z,91.80
2018-06-08T06:50:24.808Z,91.60
2018-06-08T06:51:29.184Z,91.50
2018-06-08T06:52:35.941Z,91.40
2018-06-08T06:53:41.144Z,90.90
2018-06-08T06:54:46.315Z,90.90
2018-06-08T06:55:50.843Z,91.30
2018-06-08T06:56:55.270Z,91.10
2018-06-08T06:57:59.518Z,91.10
2018-06-08T06:59:03.939Z,91.30
2018-06-08T07:00:08.178Z,91.30
2018-06-08T07:01:12.617Z,91.30
2018-06-08T07:02:17.834Z,91.30
2018-06-08T07:03:22.475Z,91.40
2018-06-08T07:04:27.000Z,91.40
2018-06-08T07:05:31.483Z,91.40
2018-06-08T07:06:35.941Z,91.50
2018-06-08T07:07:40.418Z,91.60
2018-06-08T07:08:45.232Z,91.50
2018-06-08T07:09:49.619Z,91.40
2018-06-08T07:10:53.997Z,91.80
2018-06-08T07:11:58.463Z,91.50
2018-06-08T07:13:17.525Z,91.70
2018-06-08T07:14:22.179Z,91.60
2018-06-08T07:15:26.472Z,91.00
2018-06-08T07:16:30.630Z,91.60
2018-06-08T07:17:34.842Z,91.80
2018-06-08T07:18:39.081Z,91.80
2018-06-08T07:19:43.240Z,91.70
2018-06-08T07:20:47.710Z,91.70
2018-06-08T07:21:51.857Z,91.80
2018-06-08T07:22:56.041Z,91.90
2018-06-08T07:24:00.218Z,92.00
2018-06-08T07:25:04.369Z,92.20
2018-06-08T07:26:08.583Z,92.30
2018-06-08T07:27:13.954Z,92.40
2018-06-08T07:28:18.104Z,91.20
2018-06-08T07:29:22.540Z,91.70
2018-06-08T07:30:26.823Z,91.70
2018-06-08T07:31:31.193Z,91.20
2018-06-08T07:32:35.396Z,91.60
2018-06-08T07:33:39.992Z,91.50
2018-06-08T07:34:44.454Z,91.50
2018-06-08T07:35:48.891Z,91.50
2018-06-08T07:36:53.306Z,91.20
2018-06-08T07:37:57.700Z,91.00
2018-06-08T07:39:02.485Z,91.20
2018-06-08T07:40:07.089Z,91.00
2018-06-08T07:41:11.504Z,91.00
2018-06-08T07:42:15.963Z,90.80
2018-06-08T07:43:21.163Z,90.80
2018-06-08T07:44:25.585Z,90.70
2018-06-08T07:45:30.402Z,90.40
2018-06-08T07:46:37.368Z,90.60
2018-06-08T07:47:42.745Z,90.40
2018-06-08T07:48:47.230Z,90.40
2018-06-08T07:49:51.553Z,89.90
2018-06-08T07:50:56.410Z,90.60
2018-06-08T07:52:00.641Z,90.60
2018-06-08T07:53:04.897Z,90.30
2018-06-08T07:54:09.053Z,90.80
2018-06-08T07:55:13.275Z,90.70
2018-06-08T07:56:17.729Z,90.90
2018-06-08T07:57:22.377Z,90.80
2018-06-08T07:58:26.719Z,91.50
2018-06-08T07:59:31.617Z,90.90
2018-06-08T08:00:36.786Z,90.80
2018-06-08T08:01:43.767Z,90.70
2018-06-08T08:02:48.273Z,90.50
2018-06-08T08:03:53.327Z,90.40
2018-06-08T08:04:57.948Z,90.40
2018-06-08T08:06:02.356Z,90.30
2018-06-08T08:07:06.783Z,90.70
2018-06-08T08:08:18.765Z,90.60
2018-06-08T08:10:27.305Z,90.20
2018-06-08T08:11:31.533Z,90.20
2018-06-08T08:12:35.695Z,90.40
2018-06-08T08:13:39.900Z,90.50
2018-06-08T08:14:44.123Z,90.30
2018-06-08T08:15:48.825Z,90.20
2018-06-08T08:16:53.064Z,90.40
2018-06-08T08:17:57.440Z,90.40
2018-06-08T08:19:01.535Z,90.40
2018-06-08T08:20:06.088Z,90.50
2018-06-08T08:21:10.618Z,90.50
2018-06-08T08:22:15.144Z,90.10
2018-06-08T08:23:19.581Z,89.10
2018-06-08T08:24:23.991Z,90.10
2018-06-08T08:25:28.929Z,90.50
2018-06-08T08:26:33.644Z,90.60
2018-06-08T08:27:38.405Z,90.10
2018-06-08T08:28:42.924Z,90.10
2018-06-08T08:29:47.401Z,90.40
2018-06-08T08:30:51.844Z,90.50
2018-06-08T08:32:01.735Z,90.50
2018-06-08T08:33:06.360Z,90.30
2018-06-08T08:34:11.288Z,90.20
2018-06-08T08:35:15.666Z,90.40
2018-06-08T08:36:20.184Z,90.40
2018-06-08T08:38:28.399Z,90.20
2018-06-08T08:39:32.696Z,90.40
2018-06-08T08:40:37.014Z,90.40
2018-06-08T08:41:41.319Z,89.10
2018-06-08T08:42:46.009Z,88.80
2018-06-08T08:43:51.280Z,90.10
2018-06-08T08:45:00.099Z,90.40
2018-06-08T08:46:04.708Z,90.50
2018-06-08T08:47:08.841Z,90.40
2018-06-08T08:48:12.949Z,90.40
2018-06-08T08:49:17.315Z,90.40
2018-06-08T08:50:21.727Z,90.60
2018-06-08T08:51:27.315Z,91.00
2018-06-08T08:52:32.192Z,91.10
2018-06-08T08:53:36.559Z,91.60
2018-06-08T08:54:40.953Z,92.00
2018-06-08T08:55:45.431Z,92.10
2018-06-08T08:56:50.016Z,92.70
2018-06-08T08:57:54.404Z,92.70
2018-06-08T08:58:58.822Z,92.70
2018-06-08T09:00:03.143Z,93.10
2018-06-08T09:01:07.495Z,93.20
2018-06-08T09:02:11.900Z,93.70
2018-06-08T09:03:16.395Z,94.00
2018-06-08T09:04:20.822Z,94.20
2018-06-08T09:05:25.317Z,93.80
2018-06-08T09:06:29.822Z,93.50
2018-06-08T09:07:34.234Z,94.20
2018-06-08T09:08:38.772Z,94.70
2018-06-08T09:09:43.308Z,94.60
2018-06-08T09:10:47.708Z,94.30
2018-06-08T09:11:52.072Z,94.10
2018-06-08T09:12:56.482Z,94.20
2018-06-08T09:14:00.807Z,94.00
2018-06-08T09:15:05.419Z,93.90
2018-06-08T09:16:10.286Z,94.00
2018-06-08T09:17:14.777Z,94.00
2018-06-08T09:18:19.357Z,94.20
2018-06-08T09:19:23.996Z,94.30
2018-06-08T09:20:29.159Z,94.20
2018-06-08T09:21:33.560Z,94.50
2018-06-08T09:22:37.926Z,94.70
2018-06-08T09:23:42.342Z,94.60
2018-06-08T09:24:46.726Z,95.30
2018-06-08T09:25:51.155Z,94.80
2018-06-08T09:26:55.361Z,94.50
2018-06-08T09:27:59.460Z,94.60
2018-06-08T09:29:03.654Z,94.60
2018-06-08T09:30:07.892Z,94.80
2018-06-08T09:31:11.998Z,94.70
2018-06-08T09:32:16.176Z,94.90
2018-06-08T09:33:20.368Z,94.90
2018-06-08T09:34:26.402Z,94.60
2018-06-08T09:35:30.614Z,94.50
2018-06-08T09:36:34.763Z,94.00
2018-06-08T09:37:39.232Z,94.40
2018-06-08T09:39:48.035Z,94.50
2018-06-08T09:41:56.147Z,94.80
2018-06-08T09:43:00.628Z,94.80
2018-06-08T09:44:05.038Z,94.70
2018-06-08T09:45:09.753Z,94.80
2018-06-08T09:46:14.463Z,94.70
2018-06-08T09:47:18.909Z,95.30
2018-06-08T09:48:23.544Z,94.70
2018-06-08T09:50:32.221Z,94.80
2018-06-08T09:51:36.571Z,95.00
2018-06-08T09:52:53.909Z,95.50
2018-06-08T09:53:58.250Z,95.10
2018-06-08T09:55:02.633Z,95.10
2018-06-08T09:56:06.863Z,94.90
2018-06-08T09:57:12.099Z,95.70
2018-06-08T09:58:16.448Z,95.20
2018-06-08T09:59:20.897Z,95.00
2018-06-08T10:00:30.441Z,94.70
2018-06-08T10:01:35.131Z,94.80
2018-06-08T10:02:39.467Z,95.00
2018-06-08T10:03:43.839Z,95.00
2018-06-08T10:04:48.243Z,94.90
2018-06-08T10:05:52.607Z,94.90
2018-06-08T10:06:56.733Z,94.90
2018-06-08T10:08:00.995Z,95.20
2018-06-08T10:09:07.464Z,95.10
2018-06-08T10:10:11.622Z,95.00
2018-06-08T10:11:16.046Z,95.00
2018-06-08T10:12:20.483Z,95.00
2018-06-08T10:13:24.966Z,95.00
2018-06-08T10:14:29.537Z,95.20
2018-06-08T10:15:34.050Z,95.10
2018-06-08T10:16:38.419Z,94.60
2018-06-08T10:17:43.719Z,94.90
2018-06-08T10:18:48.497Z,95.10
2018-06-08T10:19:52.813Z,95.00
2018-06-08T10:20:57.370Z,94.80
2018-06-08T10:22:06.763Z,95.10
2018-06-08T10:24:15.138Z,95.50
2018-06-08T10:25:19.523Z,95.20
2018-06-08T10:26:23.877Z,95.30
2018-06-08T10:27:28.275Z,95.50
2018-06-08T10:28:32.724Z,95.00
2018-06-08T10:29:37.125Z,94.50
2018-06-08T10:31:45.611Z,94.90
2018-06-08T10:32:50.008Z,95.60
2018-06-08T10:33:57.432Z,96.30
2018-06-08T10:35:01.711Z,95.40
2018-06-08T10:36:06.061Z,95.20
2018-06-08T10:37:10.168Z,95.20
2018-06-08T10:38:14.648Z,95.30
2018-06-08T10:39:19.233Z,95.50
2018-06-08T10:40:23.582Z,95.50
2018-06-08T10:41:27.720Z,95.40
2018-06-08T10:42:32.182Z,95.20
2018-06-08T10:43:36.279Z,95.20
2018-06-08T10:44:40.526Z,95.30
2018-06-08T10:45:45.097Z,95.20
2018-06-08T10:46:49.285Z,95.00
2018-06-08T10:47:53.458Z,94.90
2018-06-08T10:48:57.584Z,95.30
2018-06-08T10:50:02.156Z,95.20
2018-06-08T10:51:06.430Z,95.00
2018-06-08T10:52:11.249Z,95.00
2018-06-08T10:53:15.717Z,95.20
2018-06-08T10:54:20.077Z,95.20
2018-06-08T10:55:24.256Z,95.30
2018-06-08T10:56:28.397Z,95.50
2018-06-08T10:57:32.532Z,95.60
2018-06-08T10:58:36.682Z,95.70
2018-06-08T10:59:40.806Z,95.50
2018-06-08T11:00:44.977Z,95.50
2018-06-08T11:01:49.239Z,95.30
2018-06-08T11:02:53.395Z,95.50
2018-06-08T11:03:57.576Z,95.60
2018-06-08T11:05:01.693Z,95.30
2018-06-08T11:06:05.861Z,95.30
2018-06-08T11:07:10.015Z,95.40
2018-06-08T11:08:14.130Z,95.40
2018-06-08T11:09:18.338Z,95.70
2018-06-08T11:10:23.144Z,96.10
2018-06-08T11:11:27.522Z,95.60
2018-06-08T11:12:31.639Z,95.60
2018-06-08T11:13:35.741Z,95.50
2018-06-08T11:14:39.918Z,95.40
2018-06-08T11:15:44.092Z,95.50
2018-06-08T11:16:48.397Z,95.70
2018-06-08T11:17:54.725Z,94.90
2018-06-08T11:18:58.846Z,95.80
2018-06-08T11:20:03.364Z,95.60
2018-06-08T11:21:07.559Z,95.50
2018-06-08T11:22:11.932Z,94.60
2018-06-08T11:23:16.130Z,95.60
2018-06-08T11:24:20.352Z,95.30
2018-06-08T11:25:24.606Z,95.50
2018-06-08T11:26:29.260Z,95.50
2018-06-08T11:27:33.363Z,95.60
2018-06-08T11:28:37.658Z,95.30
2018-06-08T11:29:42.137Z,95.70
2018-06-08T11:30:46.738Z,95.60
2018-06-08T11:31:51.070Z,95.90
2018-06-08T11:32:55.447Z,95.30
2018-06-08T11:33:59.758Z,95.70
2018-06-08T11:35:04.223Z,95.70
2018-06-08T11:36:08.617Z,95.70
2018-06-08T11:37:12.992Z,95.70
2018-06-08T11:38:17.339Z,95.40
2018-06-08T11:39:21.799Z,95.50
2018-06-08T11:40:26.224Z,95.40
2018-06-08T11:41:30.356Z,95.30
2018-06-08T11:42:34.451Z,95.70
2018-06-08T11:43:38.666Z,95.20
2018-06-08T11:44:42.814Z,95.40
2018-06-08T11:45:47.016Z,95.40
2018-06-08T11:46:51.486Z,95.70
2018-06-08T11:47:55.581Z,95.70
2018-06-08T11:50:03.482Z,95.20
2018-06-08T11:51:09.745Z,94.70
2018-06-08T11:52:13.838Z,94.60
2018-06-08T11:54:21.702Z,94.60
2018-06-08T11:55:25.836Z,94.80
2018-06-08T11:56:30.218Z,94.60
2018-06-08T11:57:34.604Z,94.80
2018-06-08T11:58:39.308Z,95.20
2018-06-08T11:59:46.025Z,95.10
2018-06-08T12:00:54.040Z,95.00
2018-06-08T12:03:02.230Z,94.30
2018-06-08T12:04:06.725Z,94.40
2018-06-08T12:07:19.495Z,94.90
2018-06-08T12:08:23.964Z,94.90
2018-06-08T12:09:28.485Z,95.20
2018-06-08T12:10:32.873Z,94.30
2018-06-08T12:11:37.689Z,94.10
2018-06-08T12:12:42.255Z,94.20
2018-06-08T12:13:46.830Z,94.30
2018-06-08T12:15:08.622Z,94.20
2018-06-08T12:16:13.029Z,94.70
2018-06-08T12:17:20.154Z,94.30
2018-06-08T12:18:25.361Z,94.10
2018-06-08T12:19:30.294Z,94.30
2018-06-08T12:20:34.804Z,94.50
2018-06-08T12:21:39.785Z,94.10
2018-06-08T12:22:44.659Z,94.20
2018-06-08T12:23:49.619Z,94.20
2018-06-08T12:24:53.969Z,94.10
2018-06-08T12:25:58.416Z,94.20
2018-06-08T12:27:02.812Z,94.10
2018-06-08T12:29:11.928Z,94.40
2018-06-08T12:30:16.340Z,94.30
2018-06-08T12:31:20.781Z,94.20
2018-06-08T12:32:25.204Z,94.30
2018-06-08T12:33:30.009Z,93.90
2018-06-08T12:34:34.244Z,93.90
2018-06-08T12:35:38.710Z,93.80
2018-06-08T12:36:43.160Z,93.80
2018-06-08T12:37:47.307Z,93.60
2018-06-08T12:38:51.474Z,93.30
2018-06-08T12:39:55.604Z,93.90
2018-06-08T12:40:59.991Z,93.60
2018-06-08T12:42:04.246Z,93.70
2018-06-08T12:43:08.638Z,94.00
2018-06-08T12:44:12.995Z,94.00
2018-06-08T12:45:17.448Z,93.90
2018-06-08T12:46:21.874Z,93.30
2018-06-08T12:47:26.884Z,92.40
2018-06-08T12:48:31.209Z,92.30
2018-06-08T12:50:39.567Z,93.00
2018-06-08T12:51:44.116Z,93.40
2018-06-08T12:52:48.801Z,93.30
2018-06-08T12:53:53.597Z,92.70
2018-06-08T12:54:57.990Z,93.00
2018-06-08T12:56:02.372Z,93.20
2018-06-08T12:57:06.838Z,92.60
2018-06-08T12:58:11.200Z,92.90
2018-06-08T12:59:15.608Z,92.90
2018-06-08T13:00:20.111Z,92.80
2018-06-08T13:01:24.495Z,92.30
2018-06-08T13:02:28.961Z,92.50
2018-06-08T13:03:33.354Z,92.40
2018-06-08T13:05:41.690Z,92.70
2018-06-08T13:06:45.887Z,93.10
2018-06-08T13:07:50.735Z,92.40
2018-06-08T13:08:54.939Z,92.40
2018-06-08T13:09:59.121Z,91.50
2018-06-08T13:11:03.255Z,91.70
2018-06-08T13:12:07.606Z,91.90
2018-06-08T13:13:11.727Z,91.10
2018-06-08T13:14:15.882Z,92.20
2018-06-08T13:15:20.031Z,92.50
2018-06-08T13:16:24.149Z,92.80
2018-06-08T13:17:28.953Z,92.30
2018-06-08T13:18:33.060Z,92.50
2018-06-08T13:19:37.244Z,93.20
2018-06-08T13:20:42.224Z,92.60
2018-06-08T13:21:47.093Z,92.30
2018-06-08T13:22:51.472Z,91.70
2018-06-08T13:23:55.996Z,92.40
2018-06-08T13:25:00.175Z,92.20
2018-06-08T13:26:05.119Z,91.60
2018-06-08T13:27:09.225Z,92.00
2018-06-08T13:28:13.418Z,91.20
2018-06-08T13:29:17.617Z,90.90
2018-06-08T13:30:22.054Z,91.30
2018-06-08T13:31:26.177Z,91.00
2018-06-08T13:32:30.266Z,91.80
2018-06-08T13:33:34.354Z,91.80
2018-06-08T13:34:38.522Z,91.80
2018-06-08T13:35:42.649Z,91.80
2018-06-08T13:36:46.763Z,92.30
2018-06-08T13:37:50.915Z,92.20
2018-06-08T13:38:55.072Z,92.40
2018-06-08T13:39:59.231Z,91.90
2018-06-08T13:41:03.571Z,91.40
2018-06-08T13:42:07.996Z,91.10
2018-06-08T13:43:12.196Z,91.10
2018-06-08T13:44:16.800Z,91.90
2018-06-08T13:45:21.164Z,90.50
2018-06-08T13:46:36.192Z,90.50
2018-06-08T13:47:40.899Z,90.60
2018-06-08T13:49:49.974Z,91.20
2018-06-08T13:50:54.425Z,90.70
2018-06-08T13:51:58.891Z,91.00
2018-06-08T13:53:04.614Z,91.10
2018-06-08T13:54:08.952Z,91.30
2018-06-08T13:55:13.399Z,91.20
2018-06-08T13:56:17.934Z,91.40
2018-06-08T13:57:22.353Z,91.20
2018-06-08T13:58:26.830Z,91.30
2018-06-08T13:59:32.353Z,91.30
2018-06-08T14:00:36.867Z,91.30
2018-06-08T14:01:41.451Z,90.50
2018-06-08T14:02:46.030Z,90.10
2018-06-08T14:03:50.877Z,90.70
2018-06-08T14:04:55.083Z,90.80
2018-06-08T14:06:00.449Z,90.60
2018-06-08T14:07:05.083Z,90.90
2018-06-08T14:08:09.510Z,90.50
2018-06-08T14:09:13.873Z,90.60
2018-06-08T14:10:18.146Z,90.90
2018-06-08T14:11:22.453Z,91.10
2018-06-08T14:12:27.347Z,91.30
2018-06-08T14:13:32.037Z,91.10
2018-06-08T14:14:36.231Z,91.40